Time;durP1;ratioP1;P1;durP2;ratioP2;P2;SDS_P1;SDS_P2;PMS_P1;PMS_P2;Temp;Humidity;BMP_temperature;BMP_pressure;BME280_temperature;BME280_humidity;BME280_pressure;Samples;Min_cycle;Max_cycle;Signal;HPM_P1;HPM_P2
2021/10/17 00:01:53;;;;;;;11.97;9.60;;;;;;;10.05;100.00;95162.59;5054099;28;20475;-84
2021/10/17 00:04:20;;;;;;;9.73;8.53;;;;;;;9.97;100.00;95165.81;5054328;28;20442;-84
2021/10/17 00:06:47;;;;;;;13.90;10.70;;;;;;;10.04;100.00;95167.00;5054021;28;20438;-84
2021/10/17 00:09:14;;;;;;;12.00;9.87;;;;;;;10.09;100.00;95164.00;5054189;28;20540;-84
2021/10/17 00:11:41;;;;;;;11.87;10.10;;;;;;;10.12;100.00;95162.00;5054110;28;20496;-84
2021/10/17 00:14:08;;;;;;;12.97;9.97;;;;;;;10.15;100.00;95166.19;5053792;28;20806;-84
2021/10/17 00:16:35;;;;;;;15.03;10.90;;;;;;;10.21;100.00;95163.94;5053916;28;20477;-83
2021/10/17 00:19:03;;;;;;;11.83;9.90;;;;;;;10.27;100.00;95167.03;5053893;28;20461;-84
2021/10/17 00:21:30;;;;;;;12.13;9.80;;;;;;;10.29;100.00;95154.63;5053858;28;20450;-84
2021/10/17 00:23:57;;;;;;;13.03;9.87;;;;;;;10.23;100.00;95167.25;5053737;28;20483;-84
2021/10/17 00:26:24;;;;;;;11.03;9.00;;;;;;;10.21;100.00;95163.09;5053652;28;20442;-84
2021/10/17 00:28:51;;;;;;;14.77;10.73;;;;;;;10.20;100.00;95161.41;5053607;28;20443;-84
2021/10/17 00:31:18;;;;;;;11.53;9.60;;;;;;;10.20;100.00;95161.41;5053517;28;20492;-84
2021/10/17 00:33:45;;;;;;;12.07;10.00;;;;;;;10.21;100.00;95160.47;5018624;28;20813;-84
2021/10/17 00:36:13;;;;;;;13.70;10.67;;;;;;;10.22;100.00;95159.53;5053512;28;20452;-84
2021/10/17 00:38:40;;;;;;;18.10;12.13;;;;;;;10.24;100.00;95160.22;5053443;28;20993;-84
2021/10/17 00:41:07;;;;;;;13.67;11.73;;;;;;;10.20;100.00;95161.41;5053834;28;20456;-84
2021/10/17 00:43:34;;;;;;;13.30;9.47;;;;;;;10.19;100.00;95164.97;5053145;28;20946;-83
2021/10/17 00:46:01;;;;;;;12.27;10.40;;;;;;;10.20;100.00;95171.88;5018048;28;20537;-84
2021/10/17 00:48:28;;;;;;;13.57;10.30;;;;;;;10.12;100.00;95162.00;5053472;28;20446;-84
2021/10/17 00:50:55;;;;;;;12.57;11.23;;;;;;;10.11;100.00;95162.09;5052991;28;20492;-84
2021/10/17 00:53:23;;;;;;;13.50;10.70;;;;;;;9.98;100.00;95164.03;5053360;28;20464;-83
2021/10/17 00:55:50;;;;;;;15.87;12.17;;;;;;;9.94;100.00;95172.13;5052885;28;20442;-84
2021/10/17 00:58:18;;;;;;;16.30;10.47;;;;;;;9.92;100.00;95167.97;5052951;28;20934;-85
2021/10/17 01:00:44;;;;;;;13.67;11.80;;;;;;;9.85;100.00;95167.63;5053011;28;20454;-84
2021/10/17 01:03:11;;;;;;;14.30;12.47;;;;;;;9.82;100.00;95173.06;5053165;28;20450;-84
2021/10/17 01:05:38;;;;;;;15.70;12.67;;;;;;;9.79;100.00;95170.69;5053080;28;20446;-84
2021/10/17 01:08:06;;;;;;;16.13;12.03;;;;;;;9.79;100.00;95172.47;5053022;28;20465;-84
2021/10/17 01:10:34;;;;;;;15.00;12.17;;;;;;;9.83;100.00;95176.53;5052636;28;20490;-84
2021/10/17 01:13:01;;;;;;;17.53;12.53;;;;;;;9.84;100.00;95172.97;5052859;28;20815;-85
2021/10/17 01:15:28;;;;;;;14.20;11.87;;;;;;;9.79;100.00;95181.16;5052646;28;20456;-84
2021/10/17 01:17:55;;;;;;;13.57;12.13;;;;;;;9.83;100.00;95172.16;5017679;28;20581;-84
2021/10/17 01:20:23;;;;;;;19.27;13.30;;;;;;;9.84;100.00;95171.19;5052573;28;20469;-84
2021/10/17 01:22:51;;;;;;;15.60;11.87;;;;;;;9.84;100.00;95171.19;5052585;28;20454;-84
2021/10/17 01:25:18;;;;;;;17.83;12.43;;;;;;;9.83;100.00;95169.53;5052838;28;20454;-84
2021/10/17 01:27:45;;;;;;;15.80;12.07;;;;;;;9.86;100.00;95179.78;5052581;28;20452;-84
2021/10/17 01:30:17;;;;;;;17.67;11.90;;;;;;;9.90;100.00;95170.72;5052548;28;20485;-85
2021/10/17 01:32:44;;;;;;;20.90;12.40;;;;;;;9.85;100.00;95167.63;5052550;28;20942;-84
2021/10/17 01:35:11;;;;;;;17.83;12.90;;;;;;;9.83;100.00;95166.03;5052279;28;20456;-84
2021/10/17 01:37:40;;;;;;;17.17;13.37;;;;;;;9.80;100.00;95169.72;5051979;28;20446;-84
2021/10/17 01:40:07;;;;;;;16.53;12.90;;;;;;;9.83;100.00;95171.28;5052546;28;20817;-84
2021/10/17 01:42:34;;;;;;;16.10;12.30;;;;;;;9.84;100.00;95165.94;5052540;28;20449;-84
2021/10/17 01:45:01;;;;;;;14.13;10.97;;;;;;;9.83;100.00;95166.03;5052326;28;20449;-84
2021/10/17 01:47:29;;;;;;;18.30;13.80;;;;;;;9.85;100.00;95167.63;5052073;28;20897;-84
2021/10/17 01:49:56;;;;;;;17.87;13.47;;;;;;;9.83;100.00;95163.41;5052097;28;20450;-84
2021/10/17 01:52:23;;;;;;;20.20;12.17;;;;;;;9.85;100.00;95162.38;5052439;28;20441;-84
2021/10/17 01:54:51;;;;;;;15.37;10.80;;;;;;;9.93;100.00;95161.78;5052191;28;20454;-85
2021/10/17 01:57:18;;;;;;;15.67;11.77;;;;;;;9.94;100.00;95161.66;5052477;28;20462;-84
2021/10/17 01:59:45;;;;;;;14.00;11.40;;;;;;;9.89;100.00;95158.56;5052348;28;20471;-84
2021/10/17 02:02:12;;;;;;;18.03;11.80;;;;;;;9.91;100.00;95161.91;5033444;28;20450;-84
2021/10/17 02:04:39;;;;;;;16.60;12.30;;;;;;;9.91;100.00;95156.66;5051873;28;20446;-84
2021/10/17 02:07:06;;;;;;;13.83;11.47;;;;;;;9.98;100.00;95166.66;5052081;28;20442;-84
2021/10/17 02:09:33;;;;;;;16.17;12.30;;;;;;;9.90;100.00;95164.63;5052155;28;20438;-84
2021/10/17 02:12:01;;;;;;;17.40;12.23;;;;;;;9.94;100.00;95160.81;5016899;28;20482;-84
2021/10/17 02:14:28;;;;;;;15.43;11.67;;;;;;;9.89;100.00;95155.09;5052016;28;20442;-84
2021/10/17 02:16:55;;;;;;;17.07;13.27;;;;;;;9.91;100.00;95155.81;5051813;28;20481;-84
2021/10/17 02:19:22;;;;;;;18.27;13.33;;;;;;;9.90;100.00;95159.38;5051922;28;20446;-84
2021/10/17 02:21:49;;;;;;;16.27;12.90;;;;;;;9.89;100.00;95163.81;5051713;28;20462;-84
2021/10/17 02:24:16;;;;;;;19.80;15.60;;;;;;;9.92;100.00;95168.81;5052063;28;20459;-84
2021/10/17 02:26:43;;;;;;;19.03;13.40;;;;;;;9.94;100.00;95166.91;5051700;28;20446;-84
2021/10/17 02:29:11;;;;;;;17.13;13.67;;;;;;;10.05;100.00;95173.06;5033241;28;20438;-84
2021/10/17 02:31:38;;;;;;;15.50;12.60;;;;;;;10.15;100.00;95158.31;5051720;28;20478;-84
2021/10/17 02:34:05;;;;;;;15.63;11.47;;;;;;;10.21;100.00;95168.34;5051663;28;20819;-85
2021/10/17 02:36:32;;;;;;;15.07;12.90;;;;;;;10.37;100.00;95175.81;5051782;28;20479;-84
2021/10/17 02:38:59;;;;;;;19.13;14.27;;;;;;;10.30;100.00;95175.47;5051897;28;20444;-84
2021/10/17 02:41:25;;;;;;;19.73;14.03;;;;;;;10.37;100.00;95176.66;5051659;28;20453;-84
2021/10/17 02:43:52;;;;;;;18.90;13.60;;;;;;;10.43;100.00;95180.59;5051519;28;20453;-84
2021/10/17 02:46:21;;;;;;;20.17;14.20;;;;;;;10.47;100.00;95180.22;5051641;28;20446;-84
2021/10/17 02:48:48;;;;;;;17.93;14.30;;;;;;;10.51;100.00;95181.66;5052692;28;20454;-84
2021/10/17 02:51:15;;;;;;;24.87;15.80;;;;;;;10.48;100.00;95181.06;5055657;28;20487;-84
2021/10/17 02:53:42;;;;;;;21.93;15.60;;;;;;;10.49;100.00;95183.56;5055435;28;20827;-84
2021/10/17 02:56:08;;;;;;;20.83;15.37;;;;;;;10.50;100.00;95184.41;5055488;28;20456;-84
2021/10/17 02:58:35;;;;;;;22.03;15.40;;;;;;;10.60;100.00;95187.09;5055539;28;20448;-84
2021/10/17 03:01:02;;;;;;;19.40;13.70;;;;;;;10.61;100.00;95188.78;5055147;28;20811;-84
2021/10/17 03:03:31;;;;;;;22.00;15.63;;;;;;;10.67;100.00;95191.72;5055641;28;20442;-84
2021/10/17 03:05:58;;;;;;;18.07;14.90;;;;;;;10.74;100.00;95197.34;5055152;28;20537;-84
2021/10/17 03:08:25;;;;;;;21.90;16.03;;;;;;;10.75;100.00;95194.59;5055351;28;20821;-84
2021/10/17 03:10:51;;;;;;;19.60;14.70;;;;;;;10.77;100.00;95190.06;5036312;28;20492;-84
2021/10/17 03:13:18;;;;;;;27.20;16.17;;;;;;;10.79;100.00;95190.75;5054982;28;20441;-84
2021/10/17 03:15:45;;;;;;;20.83;16.00;;;;;;;10.75;100.00;95188.50;5054779;28;20458;-84
2021/10/17 03:18:12;;;;;;;19.23;15.00;;;;;;;10.76;100.00;95193.63;5036288;28;20456;-84
2021/10/17 03:20:41;;;;;;;24.37;18.93;;;;;;;10.73;100.00;95191.25;5055234;28;20450;-84
2021/10/17 03:23:07;;;;;;;21.50;15.43;;;;;;;10.74;100.00;95185.06;5055052;28;20922;-84
2021/10/17 03:25:34;;;;;;;27.33;17.80;;;;;;;10.70;100.00;95193.31;5054810;28;20457;-84
2021/10/17 03:28:02;;;;;;;28.13;16.47;;;;;;;10.66;100.00;95192.69;5054690;28;20460;-84
2021/10/17 03:30:29;;;;;;;24.73;17.20;;;;;;;10.60;100.00;95187.09;5054946;28;20504;-84
2021/10/17 03:32:56;;;;;;;20.17;15.40;;;;;;;10.57;100.00;95192.59;5054698;28;20499;-84
2021/10/17 03:35:23;;;;;;;19.50;15.80;;;;;;;10.52;100.00;95193.81;5054698;28;20437;-84
2021/10/17 03:37:51;;;;;;;24.00;16.43;;;;;;;10.53;100.00;95190.22;5054448;28;20878;-85
2021/10/17 03:40:18;;;;;;;23.67;17.47;;;;;;;10.58;100.00;95195.09;5054792;28;20445;-84
2021/10/17 03:42:45;;;;;;;26.30;18.00;;;;;;;10.60;100.00;95194.97;5054370;28;20538;-84
2021/10/17 03:45:12;;;;;;;21.83;16.00;;;;;;;10.66;100.00;95197.09;5054764;28;20819;-84
2021/10/17 03:47:39;;;;;;;22.13;17.00;;;;;;;10.71;100.00;95197.59;5055428;28;20525;-86
2021/10/17 03:50:07;;;;;;;26.50;15.57;;;;;;;10.77;100.00;95203.19;5055843;28;20442;-85
2021/10/17 03:52:35;;;;;;;23.40;16.70;;;;;;;10.81;100.00;95198.50;5055407;28;20482;-86
2021/10/17 03:55:04;;;;;;;21.57;15.90;;;;;;;10.86;100.00;95206.84;5055636;28;20488;-83
2021/10/17 03:57:31;;;;;;;23.73;15.90;;;;;;;10.86;100.00;95201.59;5055333;28;20513;-84
2021/10/17 03:59:57;;;;;;;21.77;16.00;;;;;;;10.93;100.00;95201.91;5036672;28;20964;-83
2021/10/17 04:02:24;;;;;;;17.93;14.50;;;;;;;10.96;100.00;95201.66;5055922;28;20445;-83
2021/10/17 04:04:51;;;;;;;20.97;14.93;;;;;;;10.97;100.00;95198.91;5055127;28;20445;-83
2021/10/17 04:07:18;;;;;;;26.47;16.00;;;;;;;10.99;100.00;95199.66;5055789;28;20789;-83
2021/10/17 04:20:12;;;;;;;25.17;15.70;;;;;;;10.98;100.00;95211.09;5049946;28;20805;-83
2021/10/17 04:22:40;;;;;;;20.43;16.33;;;;;;;10.96;100.00;95209.53;5055130;28;20448;-83
2021/10/17 04:25:09;;;;;;;22.03;15.80;;;;;;;10.96;100.00;95212.16;5055160;28;20462;-83
2021/10/17 04:27:36;;;;;;;21.13;15.03;;;;;;;10.94;100.00;95207.03;5055336;28;20435;-83
2021/10/17 04:30:04;;;;;;;18.77;15.33;;;;;;;10.98;100.00;95215.50;5019970;28;20952;-83
2021/10/17 04:32:31;;;;;;;19.60;14.37;;;;;;;10.99;100.00;95223.28;5054929;28;20481;-84
2021/10/17 04:34:58;;;;;;;22.60;15.43;;;;;;;10.97;100.00;95222.56;5054579;28;20445;-83
2021/10/17 04:37:27;;;;;;;20.97;15.00;;;;;;;10.99;100.00;95225.91;5054569;28;20534;-83
2021/10/17 04:39:54;;;;;;;18.53;15.03;;;;;;;10.99;100.00;95223.28;5054408;28;20438;-83
2021/10/17 04:42:21;;;;;;;21.67;16.43;;;;;;;11.00;100.00;95221.50;5054789;28;20456;-84
2021/10/17 04:44:48;;;;;;;21.47;15.87;;;;;;;11.00;100.00;95227.59;5053730;28;20448;-82
2021/10/17 04:47:15;;;;;;;22.00;16.43;;;;;;;11.02;100.00;95223.03;5053737;28;20445;-83
2021/10/17 04:49:42;;;;;;;20.70;14.97;;;;;;;11.02;100.00;95219.56;5054280;28;21003;-84
2021/10/17 04:52:09;;;;;;;22.35;18.55;;;;;;;11.10;100.00;95231.13;5053330;28;20463;-83
2021/10/17 04:54:37;;;;;;;28.07;17.80;;;;;;;11.12;100.00;95231.81;5054516;28;20219;-83
2021/10/17 04:57:05;;;;;;;30.60;20.07;;;;;;;11.12;100.00;95236.25;5054140;28;20925;-84
2021/10/17 04:59:33;;;;;;;23.77;18.53;;;;;;;11.09;100.00;95233.88;5054477;28;20525;-84
2021/10/17 05:02:00;;;;;;;23.83;17.70;;;;;;;11.12;100.00;95239.69;5054037;28;20517;-83
2021/10/17 05:04:27;;;;;;;22.13;17.15;;;;;;;11.18;100.00;95244.44;5053641;28;20508;-83
2021/10/17 05:06:54;;;;;;;21.80;15.20;;;;;;;11.23;100.00;95235.34;5054070;28;20631;-83
2021/10/17 05:09:21;;;;;;;21.07;15.77;;;;;;;12.13;100.00;95247.06;5054281;28;20445;-85
2021/10/17 05:11:49;;;;;;;20.00;14.73;;;;;;;11.95;100.00;95248.66;5053596;28;20487;-86
2021/10/17 05:14:16;;;;;;;22.90;15.50;;;;;;;11.84;100.00;95251.31;5054149;28;20475;-86
2021/10/17 05:16:43;;;;;;;21.00;17.10;;;;;;;11.78;100.00;95250.88;5054717;28;20448;-86
2021/10/17 05:19:10;;;;;;;23.57;15.83;;;;;;;11.74;100.00;95257.34;5054286;28;20477;-86
2021/10/17 05:21:37;;;;;;;24.33;17.93;;;;;;;11.69;100.00;95263.94;5054571;28;20435;-85
2021/10/17 05:24:04;;;;;;;26.97;19.07;;;;;;;11.61;100.00;95264.59;5054421;28;20430;-83
2021/10/17 05:26:31;;;;;;;28.20;18.77;;;;;;;11.52;100.00;95264.50;5019543;28;20799;-85
2021/10/17 05:29:00;;;;;;;26.97;20.07;;;;;;;11.47;99.91;95259.63;5053632;28;20430;-84
2021/10/17 05:31:27;;;;;;;36.37;21.97;;;;;;;12.44;100.00;95266.34;5053817;28;20474;-82
2021/10/17 05:33:54;;;;;;;29.73;19.70;;;;;;;12.73;100.00;95277.00;5054049;28;20418;-85
2021/10/17 05:36:21;;;;;;;26.70;19.10;;;;;;;12.63;100.00;95276.94;5053868;28;20942;-85
2021/10/17 05:38:47;;;;;;;31.13;19.73;;;;;;;12.40;96.71;95280.72;5053331;28;20449;-84
2021/10/17 05:41:14;;;;;;;29.50;20.43;;;;;;;12.12;95.76;95276.97;5053511;28;20433;-86
2021/10/17 05:43:41;;;;;;;28.98;20.77;;;;;;;12.04;96.40;95282.88;5053469;28;20523;-83
2021/10/17 05:46:10;;;;;;;26.77;18.63;;;;;;;11.98;97.24;95272.88;5015602;28;20204;-85
2021/10/17 05:49:20;;;;;;;30.10;20.80;;;;;;;11.87;96.65;95280.84;5033537;28;20446;-87
2021/10/17 05:51:47;;;;;;;29.92;20.17;;;;;;;11.71;97.22;95285.69;5033545;28;20449;-84
2021/10/17 05:54:14;;;;;;;37.10;24.07;;;;;;;11.60;97.98;95286.56;5033473;28;20436;-84
2021/10/17 05:56:41;;;;;;;35.17;23.40;;;;;;;11.59;98.69;95284.91;5033334;28;20442;-83
2021/10/17 05:59:09;;;;;;;36.37;21.60;;;;;;;11.54;99.62;95281.81;5033600;28;20431;-84
2021/10/17 06:01:37;;;;;;;32.83;21.57;;;;;;;11.55;100.00;95283.47;5033942;28;20469;-84
2021/10/17 06:04:05;;;;;;;32.60;20.70;;;;;;;11.48;100.00;95284.94;5033820;28;20457;-82
2021/10/17 06:06:32;;;;;;;35.00;22.47;;;;;;;11.47;99.92;95286.72;5033175;28;20953;-82
2021/10/17 06:09:00;;;;;;;32.80;21.03;;;;;;;11.44;99.84;95289.63;5033138;28;20522;-89
2021/10/17 06:11:27;;;;;;;62.88;36.67;;;;;;;12.70;100.00;95293.03;5032608;28;20991;-82
2021/10/17 06:13:54;;;;;;;32.93;23.03;;;;;;;13.84;100.00;95289.91;5033039;28;20192;-83
2021/10/17 06:16:21;;;;;;;26.57;18.97;;;;;;;13.61;100.00;95297.28;5015009;28;20463;-83
2021/10/17 06:18:50;;;;;;;29.03;20.23;;;;;;;13.26;93.32;95308.34;5033150;28;20475;-84
2021/10/17 06:21:16;;;;;;;32.40;19.90;;;;;;;12.97;91.89;95306.44;5033362;28;20426;-84
2021/10/17 06:23:43;;;;;;;32.33;19.33;;;;;;;12.79;92.71;95315.94;5035943;28;21019;-84
2021/10/17 06:26:10;;;;;;;28.17;20.27;;;;;;;12.63;93.90;95310.34;5037129;28;20934;-82
2021/10/17 06:28:37;;;;;;;30.77;20.70;;;;;;;12.47;94.02;95304.72;5037103;28;20431;-82
2021/10/17 06:31:04;;;;;;;27.83;21.13;;;;;;;12.43;95.10;95312.03;5036911;28;20447;-83
2021/10/17 06:33:31;;;;;;;32.22;22.70;;;;;;;12.47;96.05;95308.19;5036122;28;20475;-83
2021/10/17 06:36:00;;;;;;;27.43;20.40;;;;;;;12.43;95.63;95309.41;5036899;28;20631;-82
2021/10/17 06:38:26;;;;;;;28.13;18.93;;;;;;;12.36;96.44;95311.72;5037103;28;20933;-82
2021/10/17 06:40:53;;;;;;;31.60;20.17;;;;;;;12.28;95.82;95315.97;5036712;28;20457;-83
2021/10/17 06:43:20;;;;;;;30.07;21.47;;;;;;;12.28;97.03;95318.63;5037570;28;20447;-84
2021/10/17 06:45:47;;;;;;;28.17;18.40;;;;;;;12.29;97.50;95320.28;5018669;28;20445;-85
2021/10/17 06:48:14;;;;;;;28.63;19.77;;;;;;;12.33;97.58;95321.69;5036951;28;20506;-84
2021/10/17 06:50:41;;;;;;;31.20;22.30;;;;;;;12.30;97.22;95314.88;5036712;28;20911;-84
2021/10/17 06:53:10;;;;;;;27.00;19.73;;;;;;;12.24;96.56;95312.78;5036703;28;20486;-84
2021/10/17 06:55:36;;;;;;;33.37;22.37;;;;;;;12.20;96.62;95326.34;5037129;28;20462;-84
2021/10/17 06:58:03;;;;;;;34.73;21.57;;;;;;;12.26;97.87;95318.75;5036955;28;20439;-85
2021/10/17 07:00:30;;;;;;;35.70;22.90;;;;;;;12.28;97.84;95318.63;5036887;28;20446;-83
2021/10/17 07:02:57;;;;;;;33.97;21.07;;;;;;;12.28;97.73;95319.44;5036997;28;20451;-84
2021/10/17 07:05:24;;;;;;;42.97;24.63;;;;;;;12.22;96.57;95319.97;5036351;28;20435;-84
2021/10/17 07:07:51;;;;;;;32.83;19.40;;;;;;;12.15;96.13;95321.47;5053757;28;20449;-83
2021/10/17 07:10:19;;;;;;;32.30;20.30;;;;;;;12.08;98.02;95317.66;5056815;28;20432;-84
2021/10/17 07:12:46;;;;;;;25.80;17.90;;;;;;;12.05;96.79;95317.91;5056117;28;20480;-84
2021/10/17 07:15:13;;;;;;;21.33;15.20;;;;;;;12.10;96.74;95320.97;5055977;28;20456;-85
2021/10/17 07:17:42;;;;;;;24.27;17.53;;;;;;;12.14;97.10;95317.13;5056106;28;20450;-85
2021/10/17 07:20:10;;;;;;;29.17;18.83;;;;;;;12.27;97.66;95325.69;5056286;28;20470;-85
2021/10/17 07:22:37;;;;;;;25.60;18.17;;;;;;;12.39;97.55;95332.50;5055924;28;21009;-84
2021/10/17 07:25:04;;;;;;;29.47;18.67;;;;;;;12.46;96.14;95332.03;5055927;28;20435;-84
2021/10/17 07:27:32;;;;;;;29.70;19.47;;;;;;;12.48;96.20;95338.00;5055982;28;20812;-84
2021/10/17 07:29:59;;;;;;;25.00;17.83;;;;;;;12.51;96.48;95340.34;5056085;28;20498;-85
2021/10/17 07:32:26;;;;;;;27.43;19.00;;;;;;;12.56;96.98;95338.16;5056074;28;20496;-82
2021/10/17 07:34:53;;;;;;;23.97;18.30;;;;;;;12.61;95.95;95338.59;5055616;28;20450;-87
2021/10/17 07:37:20;;;;;;;27.13;16.97;;;;;;;12.47;94.81;95329.25;5057170;28;20431;-85
2021/10/17 07:39:47;;;;;;;27.20;17.20;;;;;;;12.46;95.71;95339.91;5056144;28;20445;-87
2021/10/17 07:42:14;;;;;;;21.57;15.90;;;;;;;12.45;95.43;95343.50;5056164;28;20445;-86
2021/10/17 07:44:42;;;;;;;22.13;16.30;;;;;;;12.44;95.70;95344.47;5055816;28;20464;-87
2021/10/17 07:47:10;;;;;;;30.33;14.93;;;;;;;12.51;95.91;95341.19;5055621;28;20458;-86
2021/10/17 07:49:37;;;;;;;23.33;16.83;;;;;;;12.60;95.47;95350.09;5056192;28;20966;-86
2021/10/17 07:52:04;;;;;;;22.40;16.33;;;;;;;12.66;94.86;95336.41;5054625;28;20441;-88
2021/10/17 07:54:33;;;;;;;27.83;19.20;;;;;;;12.75;94.83;95335.63;5055440;28;20453;-85
2021/10/17 07:57:00;;;;;;;30.00;19.10;;;;;;;12.86;95.56;95335.53;5055727;28;20443;-88
2021/10/17 07:59:26;;;;;;;30.53;19.10;;;;;;;12.97;93.92;95334.56;5055479;28;20460;-87
2021/10/17 08:01:55;;;;;;;23.83;17.10;;;;;;;13.08;93.07;95338.94;5055681;28;20411;-88
2021/10/17 08:04:22;;;;;;;27.53;19.07;;;;;;;13.22;93.39;95341.19;5055554;28;20941;-86
2021/10/17 08:06:49;;;;;;;25.83;17.77;;;;;;;13.26;92.71;95340.78;5055927;28;20804;-86
2021/10/17 08:09:16;;;;;;;31.20;20.80;;;;;;;13.27;92.36;95334.53;5055423;28;20541;-88
2021/10/17 08:11:43;;;;;;;24.10;18.13;;;;;;;13.22;91.65;95335.94;5056736;28;20525;-89
2021/10/17 08:14:09;;;;;;;26.37;19.70;;;;;;;13.18;92.06;95340.63;5056061;28;20522;-85
2021/10/17 08:16:37;;;;;;;27.30;19.57;;;;;;;13.21;92.62;95342.16;5055533;28;20449;-86
2021/10/17 08:19:05;;;;;;;30.43;18.00;;;;;;;13.21;91.85;95336.91;5055095;28;20836;-86
2021/10/17 08:21:32;;;;;;;26.40;18.47;;;;;;;13.27;92.57;95341.63;5055313;28;20439;-88
2021/10/17 08:23:59;;;;;;;21.13;14.70;;;;;;;13.29;91.26;95339.69;5037383;28;20520;-88
2021/10/17 08:26:27;;;;;;;27.40;17.90;;;;;;;13.27;90.98;95342.47;5055253;28;20446;-88
2021/10/17 08:28:54;;;;;;;20.47;14.77;;;;;;;13.28;91.16;95335.38;5055581;28;20451;-87
2021/10/17 08:31:21;;;;;;;31.17;18.77;;;;;;;13.36;91.01;95337.38;5055523;28;20458;-88
2021/10/17 08:33:48;;;;;;;25.00;18.17;;;;;;;13.41;90.17;95343.88;5054808;28;20474;-85
2021/10/17 08:36:16;;;;;;;24.80;16.27;;;;;;;13.46;90.90;95343.47;5055520;28;20910;-85
2021/10/17 08:38:43;;;;;;;26.17;16.83;;;;;;;13.52;90.14;95340.28;5054556;28;20541;-85
2021/10/17 08:41:12;;;;;;;23.10;16.87;;;;;;;13.64;90.72;95342.69;5054654;28;20445;-86
2021/10/17 08:43:39;;;;;;;25.43;17.03;;;;;;;13.67;89.43;95335.47;5054829;28;20430;-85
2021/10/17 08:46:09;;;;;;;21.27;15.93;;;;;;;13.69;88.53;95334.34;5053467;28;20449;-85
2021/10/17 08:48:37;;;;;;;23.33;17.27;;;;;;;13.67;89.72;95335.47;5053866;28;20439;-85
2021/10/17 08:51:06;;;;;;;24.10;17.27;;;;;;;13.67;89.99;95328.38;5054339;28;20446;-85
2021/10/17 08:53:35;;;;;;;25.10;18.10;;;;;;;13.75;89.12;95338.22;5054337;28;20501;-85
2021/10/17 08:56:02;;;;;;;24.87;15.40;;;;;;;13.81;89.43;95337.66;5054134;28;20454;-85
2021/10/17 08:58:29;;;;;;;23.33;16.80;;;;;;;13.78;88.97;95340.59;5019709;28;20449;-85
2021/10/17 09:00:56;;;;;;;20.20;16.70;;;;;;;13.79;89.82;95339.63;5054356;28;20541;-85
2021/10/17 09:03:31;;;;;;;21.17;15.33;;;;;;;13.88;90.66;95341.44;5054125;28;20445;-86
2021/10/17 09:05:58;;;;;;;24.90;17.90;;;;;;;13.82;88.81;95339.34;5054300;28;20430;-86
2021/10/17 09:08:28;;;;;;;25.50;16.93;;;;;;;13.87;89.53;95334.47;5054361;28;20439;-85
2021/10/17 09:10:56;;;;;;;25.07;13.63;;;;;;;13.84;88.56;95332.13;5054101;28;20516;-86
2021/10/17 09:13:23;;;;;;;23.20;17.20;;;;;;;13.93;89.47;95333.94;5019325;28;20635;-86
2021/10/17 09:15:55;;;;;;;24.70;15.50;;;;;;;13.94;89.02;95328.53;5053955;28;20450;-82
2021/10/17 09:18:23;;;;;;;23.63;15.07;;;;;;;14.12;88.82;95335.72;5054102;28;20461;-83
2021/10/17 09:20:59;;;;;;;20.13;15.20;;;;;;;14.04;87.39;95328.50;5053802;28;20859;-83
2021/10/17 09:23:35;;;;;;;29.40;16.97;;;;;;;14.10;89.30;95327.94;5053749;28;20436;-83
2021/10/17 09:26:08;;;;;;;19.50;13.80;;;;;;;14.23;89.53;95325.84;5055251;28;20437;-84
2021/10/17 09:28:42;;;;;;;17.00;12.27;;;;;;;14.27;86.05;95332.50;5054185;28;20418;-86
2021/10/17 09:31:11;;;;;;;12.33;8.87;;;;;;;14.31;85.31;95332.22;5053780;28;20513;-86
2021/10/17 09:33:43;;;;;;;17.07;11.23;;;;;;;14.37;87.50;95329.84;5053636;28;20997;-88
2021/10/17 09:36:22;;;;;;;13.73;9.70;;;;;;;14.30;85.58;95328.75;5053964;28;20442;-86
2021/10/17 09:38:52;;;;;;;18.83;10.20;;;;;;;14.27;84.46;95334.31;5053679;28;20435;-85
2021/10/17 09:41:22;;;;;;;12.70;8.60;;;;;;;14.17;84.89;95333.50;5053454;28;20450;-85
2021/10/17 09:43:54;;;;;;;12.60;8.17;;;;;;;14.02;85.52;95330.44;5054702;28;20437;-86
2021/10/17 09:46:22;;;;;;;14.50;10.93;;;;;;;13.97;86.32;95327.41;5053686;28;20932;-84
2021/10/17 09:48:49;;;;;;;15.43;11.30;;;;;;;14.02;86.22;95332.25;5053547;28;20427;-83
2021/10/17 09:51:17;;;;;;;15.00;9.80;;;;;;;14.09;86.67;95326.28;5053516;28;20441;-82
2021/10/17 09:53:47;;;;;;;19.17;10.67;;;;;;;14.19;86.75;95324.47;5053207;28;20472;-83
2021/10/17 09:56:40;;;;;;;14.30;9.43;;;;;;;14.33;86.66;95328.47;5053227;28;20512;-84
2021/10/17 09:59:09;;;;;;;15.73;10.70;;;;;;;14.31;84.72;95319.84;4972497;28;20944;-83
2021/10/17 10:01:37;;;;;;;15.97;11.60;;;;;;;14.26;87.03;95319.44;4972321;28;20452;-83
2021/10/17 10:04:05;;;;;;;16.40;10.50;;;;;;;14.16;86.07;95314.16;4972613;28;20964;-83
2021/10/17 10:06:34;;;;;;;10.07;9.03;;;;;;;14.21;86.30;95317.25;4972472;28;20424;-84
2021/10/17 10:09:02;;;;;;;14.77;9.00;;;;;;;14.11;85.31;95316.41;4972398;28;20545;-83
2021/10/17 10:11:31;;;;;;;14.37;9.50;;;;;;;14.17;87.61;95315.88;4972254;28;20436;-83
2021/10/17 10:14:01;;;;;;;11.97;9.10;;;;;;;14.23;86.84;95306.53;4972356;28;20480;-84
2021/10/17 10:16:29;;;;;;;13.67;8.47;;;;;;;14.30;86.24;95312.06;4972169;28;20468;-84
2021/10/17 10:19:00;;;;;;;9.63;8.10;;;;;;;14.20;85.97;95306.81;4971454;28;20469;-83
2021/10/17 10:21:28;;;;;;;11.80;9.47;;;;;;;14.22;85.92;95304.88;4972168;28;20984;-84
2021/10/17 10:23:57;;;;;;;14.40;9.10;;;;;;;14.32;84.97;95300.41;4972744;28;20541;-84
2021/10/17 10:26:27;;;;;;;14.57;9.23;;;;;;;14.35;84.93;95299.28;4972436;28;20824;-83
2021/10/17 10:28:55;;;;;;;13.33;9.03;;;;;;;14.40;85.13;95303.16;4972257;28;20453;-83
2021/10/17 10:31:46;;;;;;;11.93;9.33;;;;;;;14.47;84.75;95292.91;4972254;28;20953;-83
2021/10/17 10:34:35;;;;;;;13.00;9.20;;;;;;;14.50;84.51;95297.88;4940169;28;20940;-84
2021/10/17 10:37:13;;;;;;;12.87;9.33;;;;;;;14.64;84.91;95292.13;5013286;28;20432;-83
2021/10/17 10:40:07;;;;;;;18.33;8.73;;;;;;;14.60;82.61;95285.47;5013526;28;20531;-83
2021/10/17 10:42:35;;;;;;;11.97;8.27;;;;;;;14.62;82.81;95290.59;5014703;28;20455;-84
2021/10/17 10:45:34;;;;;;;10.50;7.87;;;;;;;14.55;82.23;95285.06;5032792;28;20448;-83
2021/10/17 10:48:24;;;;;;;10.73;7.40;;;;;;;14.64;82.77;95284.19;5033080;28;20434;-83
2021/10/17 11:04:49;;;;;;;9.93;7.30;;;;;;;14.75;83.24;95272.63;5032728;28;20820;-83
2021/10/17 11:07:21;;;;;;;8.53;7.30;;;;;;;14.85;83.73;95274.25;5010871;28;21293;-83
2021/10/17 11:09:49;;;;;;;16.10;7.20;;;;;;;15.00;82.58;95271.09;5012112;28;20892;-82
2021/10/17 11:12:46;;;;;;;12.73;7.20;;;;;;;15.05;81.92;95264.41;5014546;28;20466;-83
2021/10/17 11:15:15;;;;;;;10.70;8.27;;;;;;;15.10;81.68;95262.16;5014672;28;20432;-87
2021/10/17 11:17:48;;;;;;;12.40;8.13;;;;;;;15.18;82.15;95256.94;5014697;28;20436;-80
2021/10/17 11:20:18;;;;;;;16.70;8.20;;;;;;;15.28;83.27;95256.03;5013814;28;20472;-80
2021/10/17 11:22:47;;;;;;;20.63;12.63;;;;;;;15.34;83.17;95258.09;5014298;28;20942;-81
2021/10/17 11:25:16;;;;;;;12.63;8.30;;;;;;;15.31;81.56;95253.91;5014513;28;20451;-82
2021/10/17 11:27:43;;;;;;;22.87;10.10;;;;;;;15.31;82.15;95255.72;5014549;28;20520;-81
2021/10/17 11:37:21;;;;;;;55.30;8.93;;;;;;;15.40;80.86;95260.16;4975101;28;20464;-82
2021/10/17 11:39:56;;;;;;;11.43;8.10;;;;;;;15.43;78.82;95254.56;4974879;28;20464;-82
2021/10/17 11:42:23;;;;;;;14.30;7.90;;;;;;;15.43;78.69;95251.91;4975688;28;20430;-83
2021/10/17 11:44:50;;;;;;;10.27;8.00;;;;;;;15.49;78.49;95259.22;4987441;28;20448;-84
2021/10/17 11:47:19;;;;;;;16.63;10.63;;;;;;;15.49;78.78;95249.47;4994301;28;20516;-85
2021/10/17 11:49:47;;;;;;;15.40;9.60;;;;;;;15.47;79.34;95246.16;5011715;28;20468;-87
2021/10/17 11:52:14;;;;;;;13.20;9.03;;;;;;;15.44;80.20;95251.75;5014579;28;20440;-84
2021/10/17 11:54:42;;;;;;;9.53;8.07;;;;;;;15.36;78.97;95253.50;5013658;28;21230;-84